createdAt,value
2022-08-29T00:00:24.673Z,99078.97
2022-08-29T00:02:56.077Z,99040.84
2022-08-29T00:05:29.702Z,99073.56
2022-08-29T00:07:59.496Z,99084.16
2022-08-29T00:10:30.254Z,99051.97
2022-08-29T00:12:58.871Z,99113.31
2022-08-29T00:15:27.666Z,99120.63
2022-08-29T00:17:56.133Z,99101.59
2022-08-29T00:20:34.314Z,99114.47
2022-08-29T00:23:05.928Z,99067.16
2022-08-29T00:25:34.477Z,99104.53
2022-08-29T00:28:02.916Z,99017.41
2022-08-29T00:30:31.844Z,99098.19
2022-08-29T00:33:00.163Z,99106.34
2022-08-29T00:35:34.238Z,99125.47
2022-08-29T00:38:05.455Z,99068.47
2022-08-29T00:40:51.607Z,99111.78
2022-08-29T00:43:27.401Z,99120.09
2022-08-29T00:46:35.383Z,99128.81
2022-08-29T00:49:23.377Z,99079.03
2022-08-29T00:51:52.946Z,99117.63
2022-08-29T00:54:22.492Z,99125.50
2022-08-29T00:56:52.136Z,99127.16
2022-08-29T00:59:31.815Z,99125.50
2022-08-29T01:02:00.259Z,99078.41
2022-08-29T01:04:28.489Z,99110.16
2022-08-29T01:06:57.042Z,99129.66
2022-08-29T01:09:27.445Z,99127.38
2022-08-29T01:12:14.526Z,99115.56
2022-08-29T01:14:54.992Z,99111.81
2022-08-29T01:17:46.066Z,99113.28
2022-08-29T01:20:33.037Z,99071.56
2022-08-29T01:23:42.365Z,99024.09
2022-08-29T01:26:12.741Z,99128.00
2022-08-29T01:28:46.298Z,99118.44
2022-08-29T01:31:37.834Z,99115.31
2022-08-29T01:34:10.060Z,99122.81
2022-08-29T01:37:00.220Z,99127.78
2022-08-29T01:39:34.138Z,99120.94
2022-08-29T01:42:07.870Z,99123.22
2022-08-29T01:44:37.285Z,99119.69
2022-08-29T01:47:06.705Z,99130.03
2022-08-29T01:49:40.721Z,99129.03
2022-08-29T01:52:09.961Z,99128.41
2022-08-29T01:54:38.781Z,99134.00
2022-08-29T01:57:12.229Z,99097.31
2022-08-29T01:59:42.716Z,99116.38
2022-08-29T02:02:38.726Z,99128.63
2022-08-29T02:05:09.956Z,99144.97
2022-08-29T02:07:37.962Z,99142.50
2022-08-29T02:10:08.009Z,99118.66
2022-08-29T02:12:36.829Z,99106.00
2022-08-29T02:15:06.347Z,99146.22
2022-08-29T02:17:34.343Z,99113.91
2022-08-29T02:20:04.496Z,99134.81
2022-08-29T02:22:37.638Z,99094.97
2022-08-29T02:25:28.217Z,99138.75
2022-08-29T02:27:56.436Z,99131.28
2022-08-29T02:30:25.796Z,99094.19
2022-08-29T02:32:54.781Z,99104.97
2022-08-29T02:35:23.068Z,99142.09
2022-08-29T02:37:52.917Z,99136.91
2022-08-29T02:40:28.172Z,99131.28
2022-08-29T02:43:01.498Z,99134.00
2022-08-29T02:45:30.103Z,99134.81
2022-08-29T02:47:59.317Z,99133.38
2022-08-29T02:50:27.944Z,99070.53
2022-08-29T02:52:56.931Z,99120.31
2022-08-29T02:55:26.006Z,99037.19
2022-08-29T02:57:54.701Z,99125.91
2022-08-29T03:00:26.994Z,99129.41
2022-08-29T03:02:57.371Z,99132.13
2022-08-29T03:05:29.906Z,99144.16
2022-08-29T03:07:59.165Z,99135.88
2022-08-29T03:10:27.632Z,99083.19
2022-08-29T03:12:56.645Z,99133.16
2022-08-29T03:15:25.433Z,99087.31
2022-08-29T03:17:54.780Z,99132.13
2022-08-29T03:20:24.977Z,99134.00
2022-08-29T03:22:55.042Z,99137.94
2022-08-29T03:25:23.872Z,99126.94
2022-08-29T03:27:53.187Z,99087.72
2022-08-29T03:30:21.840Z,99125.28
2022-08-29T03:32:52.686Z,99136.25
2022-08-29T03:35:22.720Z,99103.53
2022-08-29T03:37:54.565Z,99132.94
2022-08-29T03:40:24.365Z,99133.38
2022-08-29T03:42:53.816Z,99147.47
2022-08-29T03:45:22.395Z,99140.03
2022-08-29T03:47:52.521Z,99145.41
2022-08-29T03:50:21.699Z,99150.38
2022-08-29T03:52:50.000Z,99155.78
2022-08-29T03:55:19.781Z,99153.91
2022-08-29T03:57:48.571Z,99164.91
2022-08-29T04:00:19.155Z,99123.41
2022-08-29T04:02:48.725Z,99119.25
2022-08-29T04:05:18.752Z,99172.78
2022-08-29T04:07:52.676Z,99155.78
2022-08-29T04:10:32.235Z,99157.63
2022-08-29T04:13:01.718Z,99165.13
2022-08-29T04:15:32.671Z,99129.63
2022-08-29T04:18:06.899Z,99171.53
2022-08-29T04:20:41.927Z,99154.31
2022-08-29T04:23:12.826Z,99169.69
2022-08-29T04:25:42.993Z,99164.88
2022-08-29T04:28:14.245Z,99166.56
2022-08-29T04:30:51.346Z,99168.59
2022-08-29T04:33:25.021Z,99160.72
2022-08-29T04:35:53.507Z,99169.44
2022-08-29T04:38:21.799Z,99181.06
2022-08-29T04:40:50.322Z,99167.78
2022-08-29T04:43:18.245Z,99175.88
2022-08-29T04:45:46.730Z,99170.25
2022-08-29T04:48:14.807Z,99128.38
2022-08-29T04:50:43.030Z,99172.34
2022-08-29T04:53:11.331Z,99178.53
2022-08-29T04:55:40.238Z,99174.78
2022-08-29T04:58:14.075Z,99181.84
2022-08-29T05:00:42.262Z,99172.25
2022-08-29T05:03:11.961Z,99176.81
2022-08-29T05:05:41.158Z,99174.34
2022-08-29T05:08:09.512Z,99190.28
2022-08-29T05:10:37.964Z,99178.47
2022-08-29T05:13:06.633Z,99136.59
2022-08-29T05:15:39.040Z,99188.41
2022-08-29T05:18:08.072Z,99182.34
2022-08-29T05:20:39.086Z,99187.09
2022-08-29T05:23:07.809Z,99189.94
2022-08-29T05:25:36.047Z,99133.53
2022-08-29T05:28:07.356Z,99191.66
2022-08-29T05:30:37.393Z,99180.22
2022-08-29T05:33:07.058Z,99175.59
2022-08-29T05:35:35.946Z,99124.38
2022-08-29T05:38:09.048Z,99158.31
2022-08-29T05:40:38.956Z,99181.72
2022-08-29T05:43:08.679Z,99131.22
2022-08-29T05:45:40.381Z,99112.38
2022-08-29T05:48:10.379Z,99137.84
2022-08-29T05:50:45.169Z,99178.66
2022-08-29T05:53:16.604Z,99068.91
2022-08-29T05:55:45.424Z,99148.72
2022-08-29T05:58:13.611Z,99185.59
2022-08-29T06:00:46.540Z,99184.16
2022-08-29T06:03:15.599Z,99192.06
2022-08-29T06:05:50.689Z,99189.94
2022-08-29T06:08:20.201Z,99153.03
2022-08-29T06:10:49.176Z,99162.09
2022-08-29T06:13:17.554Z,99190.13
2022-08-29T06:15:46.248Z,99147.72
2022-08-29T06:18:14.745Z,99163.94
2022-08-29T06:20:43.216Z,99209.22
2022-08-29T06:23:11.305Z,99212.91
2022-08-29T06:25:40.532Z,99205.31
2022-08-29T06:28:09.322Z,99222.16
2022-08-29T06:30:37.384Z,99219.25
2022-08-29T06:33:05.619Z,99175.41
2022-08-29T06:35:33.799Z,99211.16
2022-08-29T06:38:01.899Z,99234.38
2022-08-29T06:40:30.280Z,99235.19
2022-08-29T06:42:58.995Z,99236.03
2022-08-29T06:45:27.682Z,99245.97
2022-08-29T06:47:55.917Z,99245.09
2022-08-29T06:50:26.748Z,99135.03
2022-08-29T06:52:55.744Z,99236.09
2022-08-29T06:55:24.755Z,99257.31
2022-08-29T06:57:56.104Z,99250.38
2022-08-29T07:00:24.199Z,99243.66
2022-08-29T07:02:53.586Z,99245.31
2022-08-29T07:05:23.747Z,99246.56
2022-08-29T07:07:52.797Z,99246.56
2022-08-29T07:10:22.846Z,99241.47
2022-08-29T07:12:53.348Z,99252.63
2022-08-29T07:15:24.880Z,99245.47
2022-08-29T07:17:56.586Z,99218.31
2022-08-29T07:20:28.454Z,99244.09
2022-08-29T07:22:57.507Z,99208.34
2022-08-29T07:25:27.873Z,99233.16
2022-08-29T07:27:56.354Z,99225.47
2022-08-29T07:30:25.165Z,99253.03
2022-08-29T07:32:53.537Z,99220.38
2022-08-29T07:35:30.106Z,99260.44
2022-08-29T07:38:01.467Z,99230.66
2022-08-29T07:40:30.726Z,99272.06
2022-08-29T07:42:58.975Z,99265.22
2022-08-29T07:45:27.261Z,99264.47
2022-08-29T07:47:55.506Z,99276.06
2022-08-29T07:50:24.025Z,99291.22
2022-08-29T07:52:52.663Z,99289.38
2022-08-29T07:55:22.346Z,99295.41
2022-08-29T07:57:53.245Z,99292.72
2022-08-29T08:00:21.739Z,99299.38
2022-08-29T08:02:50.004Z,99182.50
2022-08-29T08:05:18.325Z,99276.13
2022-08-29T08:07:47.401Z,99275.28
2022-08-29T08:10:20.697Z,99306.41
2022-08-29T08:12:51.717Z,99312.44
2022-08-29T08:15:22.276Z,99315.34
2022-08-29T08:17:50.440Z,99274.84
2022-08-29T08:20:18.682Z,99314.28
2022-08-29T08:22:48.277Z,99318.47
2022-08-29T08:25:16.721Z,99325.09
2022-08-29T08:27:45.008Z,99281.69
2022-08-29T08:30:14.153Z,99319.09
2022-08-29T08:32:46.382Z,99346.50
2022-08-29T08:35:16.537Z,99203.44
2022-08-29T08:37:44.770Z,99336.28
2022-08-29T08:40:30.600Z,99332.34
2022-08-29T08:43:02.975Z,99328.44
2022-08-29T08:45:40.084Z,99327.38
2022-08-29T08:48:22.940Z,99339.00
2022-08-29T08:51:03.512Z,99332.78
2022-08-29T08:53:47.100Z,99269.44
2022-08-29T08:56:47.404Z,99349.38
2022-08-29T08:59:33.350Z,99351.44
2022-08-29T09:02:23.430Z,99316.75
2022-08-29T09:05:06.617Z,99365.16
2022-08-29T09:08:08.456Z,99309.72
2022-08-29T09:11:04.456Z,99357.50
2022-08-29T09:14:13.079Z,99346.91
2022-08-29T09:16:49.666Z,99315.31
2022-08-29T09:19:18.158Z,99370.56
2022-08-29T09:22:06.871Z,99380.91
2022-08-29T09:24:50.200Z,99365.25
2022-08-29T09:27:26.556Z,99369.72
2022-08-29T09:30:08.458Z,99364.19
2022-08-29T09:33:03.554Z,99367.97
2022-08-29T09:36:02.548Z,99353.97
2022-08-29T09:38:31.591Z,99344.00
2022-08-29T09:41:04.371Z,99309.81
2022-08-29T09:43:46.998Z,99353.06
2022-08-29T09:46:25.245Z,99306.78
2022-08-29T09:49:17.842Z,99334.88
2022-08-29T09:51:50.010Z,99336.38
2022-08-29T09:54:28.152Z,99329.59
2022-08-29T09:57:14.203Z,99325.94
2022-08-29T10:00:15.895Z,99307.56
2022-08-29T10:02:56.091Z,99312.22
2022-08-29T10:05:41.651Z,99339.59
2022-08-29T10:08:34.237Z,99326.88
2022-08-29T10:11:17.703Z,99333.28
2022-08-29T10:14:01.309Z,99344.91
2022-08-29T10:16:35.760Z,99344.88
2022-08-29T10:19:34.322Z,99345.63
2022-08-29T10:22:42.087Z,99346.97
2022-08-29T10:25:41.446Z,99347.25
2022-08-29T10:28:25.065Z,99227.19
2022-08-29T10:31:46.301Z,99300.38
2022-08-29T10:34:56.151Z,99334.16
2022-08-29T10:37:53.914Z,99339.66
2022-08-29T10:40:43.926Z,99328.94
2022-08-29T10:43:44.519Z,99335.25
2022-08-29T10:46:12.973Z,99351.25
2022-08-29T10:49:20.159Z,99360.34
2022-08-29T10:52:36.932Z,99326.88
2022-08-29T10:55:35.022Z,99355.84
2022-08-29T10:58:30.663Z,99363.38
2022-08-29T11:01:13.169Z,99365.41
2022-08-29T11:04:06.683Z,99365.97
2022-08-29T11:06:55.664Z,99361.13
2022-08-29T11:09:50.751Z,99354.59
2022-08-29T11:12:34.443Z,99372.88
2022-08-29T11:15:31.968Z,99375.59
2022-08-29T11:18:22.586Z,99383.09
2022-08-29T11:21:04.299Z,99365.03
2022-08-29T11:23:48.901Z,99343.03
2022-08-29T11:26:23.247Z,99385.06
2022-08-29T11:29:12.778Z,99380.16
2022-08-29T11:32:16.340Z,99388.53
2022-08-29T11:35:09.773Z,99378.88
2022-08-29T11:38:21.634Z,99350.81
2022-08-29T11:44:11.533Z,99382.53
2022-08-29T11:46:53.455Z,99392.00
2022-08-29T11:49:40.225Z,99381.03
2022-08-29T11:52:11.609Z,99387.59
2022-08-29T11:54:40.441Z,99389.66
2022-08-29T11:57:11.300Z,99390.53
2022-08-29T11:59:57.071Z,99352.22
2022-08-29T12:02:30.952Z,99359.31
2022-08-29T12:05:10.275Z,99384.84
2022-08-29T12:08:26.226Z,99385.34
2022-08-29T12:10:56.599Z,99388.31
2022-08-29T12:13:59.490Z,99384.31
2022-08-29T12:16:50.664Z,99314.78
2022-08-29T12:19:48.549Z,99358.19
2022-08-29T12:23:01.086Z,99392.22
2022-08-29T12:26:04.113Z,99396.59
2022-08-29T12:28:58.635Z,99394.25
2022-08-29T12:32:22.989Z,99386.69
2022-08-29T12:35:07.836Z,99387.09
2022-08-29T12:38:04.351Z,99374.91
2022-08-29T12:41:01.618Z,99352.72
2022-08-29T12:43:42.893Z,99388.34
2022-08-29T12:46:29.010Z,99358.63
2022-08-29T12:49:30.952Z,99371.44
2022-08-29T12:52:04.849Z,99406.75
2022-08-29T12:54:42.066Z,99380.72
2022-08-29T12:57:29.246Z,99370.63
2022-08-29T12:59:58.532Z,99391.25
2022-08-29T13:02:36.587Z,99358.59
2022-08-29T13:05:26.893Z,99291.44
2022-08-29T13:08:11.087Z,99390.09
2022-08-29T13:10:55.658Z,99367.13
2022-08-29T13:13:26.678Z,99397.13
2022-08-29T13:16:01.703Z,99384.94
2022-08-29T13:18:40.474Z,99344.91
2022-08-29T13:21:27.449Z,99391.78
2022-08-29T13:24:11.577Z,99380.78
2022-08-29T13:27:04.646Z,99355.03
2022-08-29T13:29:40.743Z,99375.69
2022-08-29T13:32:29.065Z,99387.88
2022-08-29T13:35:34.017Z,99341.50
2022-08-29T13:38:24.193Z,99377.44
2022-08-29T13:40:57.235Z,99371.91
2022-08-29T13:43:49.026Z,99374.75
2022-08-29T13:46:26.698Z,99370.88
2022-08-29T13:49:04.903Z,99342.38
2022-08-29T13:51:34.119Z,99369.41
2022-08-29T13:54:02.249Z,99334.22
2022-08-29T13:56:33.686Z,99360.84
2022-08-29T13:59:02.871Z,99366.41
2022-08-29T14:02:07.911Z,99366.69
2022-08-29T14:04:37.598Z,99342.56
2022-08-29T14:07:07.905Z,99380.25
2022-08-29T14:09:40.313Z,99365.34
2022-08-29T14:12:09.464Z,99369.13
2022-08-29T14:14:37.602Z,99376.53
2022-08-29T14:17:05.894Z,99360.38
2022-08-29T14:19:34.543Z,99354.94
2022-08-29T14:22:03.655Z,99344.00
2022-08-29T14:24:37.820Z,99383.94
2022-08-29T14:27:06.308Z,99377.50
2022-08-29T14:29:35.692Z,99376.47
2022-08-29T14:32:05.068Z,99357.84
2022-08-29T14:34:33.435Z,99338.97
2022-08-29T14:37:02.433Z,99360.19
2022-08-29T14:39:30.814Z,99365.78
2022-08-29T14:41:58.906Z,99340.28
2022-08-29T14:44:27.498Z,99369.06
2022-08-29T14:46:56.017Z,99325.47
2022-08-29T14:49:24.424Z,99367.03
2022-08-29T14:51:52.668Z,99361.50
2022-08-29T14:54:21.022Z,99360.25
2022-08-29T14:56:50.375Z,99361.69
2022-08-29T14:59:22.081Z,99353.72
2022-08-29T15:01:54.298Z,99351.09
2022-08-29T15:04:36.445Z,99359.81
2022-08-29T15:07:13.623Z,99352.00
2022-08-29T15:09:44.444Z,99360.91
2022-08-29T15:12:15.942Z,99363.06
2022-08-29T15:14:45.970Z,99321.69
2022-08-29T15:17:14.609Z,99358.09
2022-08-29T15:22:31.468Z,99280.13
2022-08-29T15:24:59.717Z,99352.91
2022-08-29T15:27:27.952Z,99354.50
2022-08-29T15:29:58.130Z,99324.53
2022-08-29T15:32:26.519Z,99365.88
2022-08-29T15:34:54.753Z,99363.41
2022-08-29T15:37:23.480Z,99368.84
2022-08-29T15:39:54.617Z,99368.50
2022-08-29T15:42:28.874Z,99363.47
2022-08-29T15:45:08.390Z,99284.09
2022-08-29T15:47:37.854Z,99379.56
2022-08-29T15:50:08.293Z,99362.66
2022-08-29T15:52:37.474Z,99336.28
2022-08-29T15:55:07.538Z,99329.22
2022-08-29T15:57:39.554Z,99368.94
2022-08-29T16:00:29.570Z,99373.19
2022-08-29T16:03:02.335Z,99371.03
2022-08-29T16:05:32.316Z,99340.50
2022-08-29T16:08:01.161Z,99378.53
2022-08-29T16:10:31.076Z,99375.69
2022-08-29T16:13:00.589Z,99390.06
2022-08-29T16:15:31.349Z,99382.22
2022-08-29T16:18:00.616Z,99382.47
2022-08-29T16:20:31.304Z,99349.53
2022-08-29T16:23:00.768Z,99369.88
2022-08-29T16:25:32.027Z,99351.59
2022-08-29T16:28:01.101Z,99381.94
2022-08-29T16:30:30.218Z,99373.47
2022-08-29T16:32:58.354Z,99374.63
2022-08-29T16:35:26.850Z,99378.31
2022-08-29T16:38:02.235Z,99380.28
2022-08-29T16:40:32.811Z,99373.16
2022-08-29T16:43:03.660Z,99387.28
2022-08-29T16:45:33.000Z,99345.31
2022-08-29T16:48:01.524Z,99394.47
2022-08-29T16:50:32.972Z,99393.28
2022-08-29T16:53:03.350Z,99396.84
2022-08-29T16:55:31.959Z,99392.78
2022-08-29T16:58:32.579Z,99382.06
2022-08-29T17:01:01.184Z,99390.00
2022-08-29T17:03:29.460Z,99360.09
2022-08-29T17:05:57.918Z,99404.78
2022-08-29T17:08:26.252Z,99409.09
2022-08-29T17:10:55.434Z,99413.81
2022-08-29T17:13:23.800Z,99382.19
2022-08-29T17:15:52.226Z,99378.72
2022-08-29T17:18:20.861Z,99380.63
2022-08-29T17:20:49.276Z,99380.84
2022-08-29T17:23:17.849Z,99425.56
2022-08-29T17:25:46.167Z,99401.09
2022-08-29T17:28:18.206Z,99421.88
2022-08-29T17:30:49.257Z,99426.66
2022-08-29T17:33:19.341Z,99439.34
2022-08-29T17:35:48.844Z,99419.00
2022-08-29T17:38:18.368Z,99438.13
2022-08-29T17:40:47.762Z,99438.69
2022-08-29T17:43:21.482Z,99381.75
2022-08-29T17:45:49.810Z,99442.81
2022-08-29T17:48:19.816Z,99399.34
2022-08-29T17:50:50.056Z,99445.66
2022-08-29T17:53:20.337Z,99450.00
2022-08-29T17:55:51.228Z,99445.81
2022-08-29T17:58:21.756Z,99399.78
2022-08-29T18:00:50.719Z,99454.28
2022-08-29T18:03:19.764Z,99429.00
2022-08-29T18:05:48.704Z,99459.13
2022-08-29T18:08:17.106Z,99462.00
2022-08-29T18:10:45.699Z,99417.66
2022-08-29T18:13:16.596Z,99464.44
2022-08-29T18:15:46.902Z,99468.78
2022-08-29T18:18:19.036Z,99471.53
2022-08-29T18:20:47.342Z,99476.47
2022-08-29T18:23:15.738Z,99443.16
2022-08-29T18:25:44.152Z,99441.56
2022-08-29T18:28:12.555Z,99482.00
2022-08-29T18:30:41.116Z,99475.72
2022-08-29T18:33:10.141Z,99488.06
2022-08-29T18:35:38.970Z,99490.91
2022-08-29T18:38:08.154Z,99485.84
2022-08-29T18:40:39.556Z,99498.66
2022-08-29T18:43:10.060Z,99505.19
2022-08-29T18:45:41.452Z,99502.97
2022-08-29T18:48:10.176Z,99466.19
2022-08-29T18:50:38.729Z,99498.59
2022-08-29T18:53:13.828Z,99502.72
2022-08-29T18:55:52.175Z,99507.56
2022-08-29T18:58:28.733Z,99475.91
2022-08-29T19:01:00.051Z,99516.53
2022-08-29T19:03:28.863Z,99516.81
2022-08-29T19:05:57.070Z,99503.19
2022-08-29T19:08:30.690Z,99472.25
2022-08-29T19:11:00.696Z,99516.72
2022-08-29T19:13:30.667Z,99506.59
2022-08-29T19:16:03.695Z,99523.28
2022-08-29T19:18:33.395Z,99530.59
2022-08-29T19:21:10.174Z,99445.78
2022-08-29T19:23:45.765Z,99519.25
2022-08-29T19:26:19.427Z,99480.66
2022-08-29T19:28:47.984Z,99498.41
2022-08-29T19:31:18.394Z,99510.16
2022-08-29T19:33:47.859Z,99533.44
2022-08-29T19:36:17.743Z,99525.25
2022-08-29T19:38:47.335Z,99530.31
2022-08-29T19:41:16.574Z,99530.00
2022-08-29T19:43:45.374Z,99514.16
2022-08-29T19:46:20.919Z,99534.06
2022-08-29T19:48:51.193Z,99522.22
2022-08-29T19:51:24.721Z,99540.19
2022-08-29T19:53:57.434Z,99545.25
2022-08-29T19:56:27.348Z,99528.88
2022-08-29T19:58:58.137Z,99541.59
2022-08-29T20:01:27.264Z,99482.31
2022-08-29T20:03:55.719Z,99527.91
2022-08-29T20:06:24.328Z,99506.75
2022-08-29T20:08:52.646Z,99516.47
2022-08-29T20:11:25.659Z,99480.91
2022-08-29T20:13:58.871Z,99532.06
2022-08-29T20:16:33.572Z,99534.56
2022-08-29T20:19:07.489Z,99529.25
2022-08-29T20:21:36.816Z,99536.09
2022-08-29T20:24:05.594Z,99534.25
2022-08-29T20:26:36.718Z,99498.34
2022-08-29T20:29:09.810Z,99548.69
2022-08-29T20:31:39.828Z,99495.03
2022-08-29T20:34:08.392Z,99493.34
2022-08-29T20:36:55.972Z,99549.19
2022-08-29T20:39:26.392Z,99499.38
2022-08-29T20:41:58.010Z,99549.47
2022-08-29T20:44:33.488Z,99546.31
2022-08-29T20:47:02.179Z,99539.84
2022-08-29T20:49:30.516Z,99545.50
2022-08-29T20:51:58.841Z,99433.75
2022-08-29T20:54:28.067Z,99549.88
2022-08-29T20:56:56.418Z,99549.91
2022-08-29T20:59:26.878Z,99539.91
2022-08-29T21:01:55.916Z,99539.44
2022-08-29T21:04:42.909Z,99542.25
2022-08-29T21:07:15.180Z,99498.78
2022-08-29T21:09:46.336Z,99509.00
2022-08-29T21:12:15.408Z,99549.28
2022-08-29T21:14:43.943Z,99556.03
2022-08-29T21:17:13.837Z,99506.22
2022-08-29T21:19:43.389Z,99506.38
2022-08-29T21:22:15.773Z,99551.34
2022-08-29T21:24:44.176Z,99555.56
2022-08-29T21:27:12.259Z,99550.38
2022-08-29T21:29:44.027Z,99514.25
2022-08-29T21:32:12.163Z,99566.25
2022-08-29T21:34:40.593Z,99558.38
2022-08-29T21:37:08.829Z,99568.09
2022-08-29T21:39:37.024Z,99566.25
2022-08-29T21:42:05.700Z,99569.59
2022-08-29T21:44:34.145Z,99568.75
2022-08-29T21:47:02.766Z,99572.78
2022-08-29T21:49:31.011Z,99565.75
2022-08-29T21:52:00.252Z,99562.41
2022-08-29T21:54:28.379Z,99563.56
2022-08-29T21:56:56.412Z,99523.28
2022-08-29T21:59:28.004Z,99565.91
2022-08-29T22:01:56.858Z,99565.91
2022-08-29T22:04:28.869Z,99565.56
2022-08-29T22:06:59.258Z,99552.03
2022-08-29T22:09:28.925Z,99540.50
2022-08-29T22:11:57.530Z,99558.75
2022-08-29T22:14:46.852Z,99568.94
2022-08-29T22:17:16.663Z,99518.28
2022-08-29T22:19:44.981Z,99560.06
2022-08-29T22:22:13.355Z,99550.00
2022-08-29T22:24:41.633Z,99523.78
2022-08-29T22:27:09.718Z,99567.75
2022-08-29T22:29:38.866Z,99554.38
2022-08-29T22:32:07.451Z,99573.44
2022-08-29T22:34:35.584Z,99575.28
2022-08-29T22:37:03.869Z,99583.28
2022-08-29T22:39:32.148Z,99585.16
2022-08-29T22:42:00.275Z,99584.47
2022-08-29T22:45:02.665Z,99587.97
2022-08-29T22:47:18.291Z,99544.50
2022-08-29T22:49:46.701Z,99556.69
2022-08-29T22:52:14.881Z,99583.47
2022-08-29T22:54:43.359Z,99579.13
2022-08-29T22:57:16.863Z,99576.13
2022-08-29T22:59:46.963Z,99518.91
2022-08-29T23:02:16.156Z,99575.78
2022-08-29T23:04:44.795Z,99533.28
2022-08-29T23:07:13.510Z,99573.13
2022-08-29T23:09:43.479Z,99568.09
2022-08-29T23:12:13.743Z,99526.97
2022-08-29T23:14:46.645Z,99563.06
2022-08-29T23:17:18.190Z,99560.22
2022-08-29T23:19:46.758Z,99551.53
2022-08-29T23:22:18.152Z,99521.94
2022-08-29T23:24:55.735Z,99561.38
2022-08-29T23:27:32.895Z,99564.06
2022-08-29T23:30:01.633Z,99568.91
2022-08-29T23:32:30.383Z,99563.56
2022-08-29T23:34:58.380Z,99522.91
2022-08-29T23:37:27.068Z,99572.59
2022-08-29T23:39:55.707Z,99563.41
2022-08-29T23:42:24.248Z,99565.91
2022-08-29T23:44:52.419Z,99525.88
2022-08-29T23:47:20.562Z,99567.72
2022-08-29T23:49:48.608Z,99535.06
2022-08-29T23:52:16.950Z,99574.72
2022-08-29T23:54:45.035Z,99534.66
2022-08-29T23:57:13.323Z,99566.97
2022-08-29T23:59:59.790Z,99526.63
